Rosenberg, Texas
Current Conditions -  °F | °C
As of 8:53 PM on Sunday 23 Nov 2014 (Local Time) from KSGR Reporting Station
Clear Clear  
Wind Chill: 64°   Ceiling: Unl
Heat Index: 64°   Visibility: 10mi
Dew Point: 57°   Wind: 6mph
Humidity: 78%   Direction: 210°SSW
Pressure: 29.66"   Gusts: NA
Location:  29.55°N, 95.8°W
Report Text: KSGR 240253Z 21005KT 10SM CLR 18/14 A2966 RMK AO2 SLP045 T01780139 51029
Loading
Personal Weather Stations






























Interactive Weather Map New forecast layout! Learn more

10-Day Weather Forecast

Advertisements
Track Severe Weather on mobile